Arlington, North Carolina
Current Conditions -  °F | °C
As of 1:55 PM on Friday 21 Nov 2014 (Local Time) from KUKF Reporting Station
Clear Clear  
Wind Chill: 46°   Ceiling: Unl
Heat Index: 48°   Visibility: 10mi
Dew Point: 12°   Wind: 5mph
Humidity: 24%   Direction: 90°E
Pressure: 30.42"   Gusts: NA
Location:  36.2274°N, 80.767°W
Report Text: KUKF 211855Z AUTO 09004KT 10SM CLR 09/M11 A3042 RMK AO2
Loading
Personal Weather Stations






























Interactive Weather Map New forecast layout! Learn more

10-Day Weather Forecast

Advertisements
Track Severe Weather on mobile